Time;durP1;ratioP1;P1;durP2;ratioP2;P2;SDS_P1;SDS_P2;PMS_P1;PMS_P2;Temp;Humidity;BMP_temperature;BMP_pressure;BME280_temperature;BME280_humidity;BME280_pressure;Samples;Min_cycle;Max_cycle;Signal;HPM_P1;HPM_P2
2023/05/21 00:00:59;;;;;;;1.98;1.88;;;13.50;99.90;;;;;;5048043;28;20048;-70
2023/05/21 00:03:27;;;;;;;1.38;1.30;;;13.50;99.90;;;;;;5040634;28;20094;-71
2023/05/21 00:05:53;;;;;;;1.67;1.38;;;13.40;99.90;;;;;;5042328;28;20053;-71
2023/05/21 00:08:19;;;;;;;1.25;1.15;;;13.50;99.90;;;;;;5040111;28;20474;-71
2023/05/21 00:10:45;;;;;;;2.03;1.13;;;13.50;99.90;;;;;;5045947;28;20099;-70
2023/05/21 00:13:11;;;;;;;1.85;1.40;;;13.40;99.90;;;;;;5044026;28;20041;-70
2023/05/21 00:15:37;;;;;;;2.05;1.42;;;13.40;99.90;;;;;;5036435;28;20439;-71
2023/05/21 00:18:03;;;;;;;1.42;1.38;;;13.50;99.90;;;;;;5045442;28;20037;-71
2023/05/21 00:20:31;;;;;;;1.67;0.93;;;13.50;99.90;;;;;;5045731;28;20125;-71
2023/05/21 00:22:57;;;;;;;2.25;2.15;;;13.50;99.90;;;;;;5037828;28;20186;-70
2023/05/21 00:25:23;;;;;;;2.03;1.88;;;13.50;99.90;;;;;;5044601;28;20048;-70
2023/05/21 00:27:49;;;;;;;1.30;1.20;;;13.50;99.90;;;;;;5044390;28;20047;-70
2023/05/21 00:30:15;;;;;;;3.33;1.25;;;13.50;99.90;;;;;;5041686;28;20090;-71
2023/05/21 00:32:41;;;;;;;1.05;1.05;;;13.50;99.90;;;;;;5047601;28;20049;-70
2023/05/21 00:35:07;;;;;;;0.70;0.70;;;13.40;99.90;;;;;;5041740;28;20405;-70
2023/05/21 00:37:33;;;;;;;1.48;1.38;;;13.40;99.90;;;;;;5044615;28;20033;-71
2023/05/21 00:40:00;;;;;;;1.05;1.05;;;13.40;99.90;;;;;;5044461;28;20128;-70
2023/05/21 00:42:26;;;;;;;0.70;0.70;;;13.40;99.90;;;;;;5045966;28;20056;-70
2023/05/21 00:44:56;;;;;;;0.98;0.82;;;13.40;99.90;;;;;;5040731;28;20045;-70
2023/05/21 00:47:22;;;;;;;0.77;0.77;;;13.40;99.90;;;;;;5050545;28;20049;-70
2023/05/21 00:49:50;;;;;;;0.68;0.68;;;13.40;99.90;;;;;;5052074;28;20095;-70
2023/05/21 00:52:19;;;;;;;1.33;1.23;;;13.40;99.90;;;;;;5046578;28;20049;-70
2023/05/21 00:54:47;;;;;;;1.60;1.50;;;13.40;99.90;;;;;;5044909;28;20088;-71
2023/05/21 00:57:13;;;;;;;0.77;0.77;;;13.40;99.90;;;;;;5038048;28;20049;-70
2023/05/21 00:59:39;;;;;;;1.63;1.42;;;13.40;99.90;;;;;;5044284;28;20056;-70
2023/05/21 01:02:05;;;;;;;0.70;0.70;;;13.40;99.90;;;;;;5040640;28;20049;-70
2023/05/21 01:04:31;;;;;;;1.48;1.42;;;13.40;99.90;;;;;;5043305;28;20095;-70
2023/05/21 01:06:57;;;;;;;2.95;1.80;;;13.40;99.90;;;;;;5043913;28;20049;-70
2023/05/21 01:09:27;;;;;;;4.75;1.88;;;13.30;99.90;;;;;;5041688;28;20041;-71
2023/05/21 01:11:54;;;;;;;1.75;1.65;;;13.30;99.90;;;;;;5045134;28;20076;-70
2023/05/21 01:14:21;;;;;;;1.30;1.15;;;13.30;99.90;;;;;;5040626;28;20110;-71
2023/05/21 01:16:48;;;;;;;3.22;1.50;;;13.20;99.90;;;;;;5044702;28;20467;-71
2023/05/21 01:19:22;;;;;;;1.83;1.70;;;13.10;99.90;;;;;;5040309;28;20067;-70
2023/05/21 01:22:05;;;;;;;1.33;1.25;;;13.10;99.90;;;;;;5045592;28;20098;-71
2023/05/21 01:24:30;;;;;;;1.92;1.83;;;13.10;99.90;;;;;;5041455;28;20060;-71
2023/05/21 01:26:57;;;;;;;0.90;0.90;;;13.10;99.90;;;;;;5042810;28;20609;-71
2023/05/21 01:29:23;;;;;;;0.88;0.88;;;13.10;99.90;;;;;;5043333;28;20044;-71
2023/05/21 01:32:12;;;;;;;1.20;1.15;;;13.10;99.90;;;;;;5045089;28;20048;-71
2023/05/21 01:35:02;;;;;;;1.33;1.23;;;13.10;99.90;;;;;;5037877;28;20041;-71
2023/05/21 01:37:35;;;;;;;2.50;2.28;;;13.10;99.90;;;;;;5044077;28;20080;-71
2023/05/21 01:40:16;;;;;;;1.50;1.40;;;13.10;99.90;;;;;;5045530;28;20080;-71
2023/05/21 01:42:44;;;;;;;0.93;0.90;;;13.20;99.90;;;;;;5041049;28;20052;-71
2023/05/21 01:45:13;;;;;;;1.08;1.05;;;13.20;99.90;;;;;;5039347;28;20132;-70
2023/05/21 01:47:39;;;;;;;2.78;1.30;;;13.20;99.90;;;;;;5042905;28;20468;-71
2023/05/21 01:50:06;;;;;;;1.48;1.38;;;13.20;99.90;;;;;;5042911;28;20045;-71
2023/05/21 01:52:31;;;;;;;2.90;2.05;;;13.20;99.90;;;;;;5045248;28;20250;-70
2023/05/21 01:54:59;;;;;;;1.55;1.45;;;13.20;99.90;;;;;;5041024;28;20136;-71
2023/05/21 01:57:24;;;;;;;3.90;1.23;;;13.10;99.90;;;;;;5021779;28;20052;-71
2023/05/21 01:59:52;;;;;;;1.27;1.27;;;13.10;99.90;;;;;;5042335;28;20045;-71
2023/05/21 02:02:18;;;;;;;1.05;1.05;;;13.10;99.90;;;;;;5036750;28;20053;-71
2023/05/21 02:04:45;;;;;;;1.00;1.00;;;13.10;99.90;;;;;;5047172;28;20056;-70
2023/05/21 02:07:13;;;;;;;3.88;1.90;;;13.10;99.90;;;;;;5042555;28;20512;-71
2023/05/21 02:09:39;;;;;;;0.60;0.60;;;13.10;99.90;;;;;;5042600;28;20049;-71
2023/05/21 02:12:06;;;;;;;1.27;1.27;;;13.10;99.90;;;;;;5037977;28;20053;-70
2023/05/21 02:14:35;;;;;;;1.55;1.40;;;13.10;99.90;;;;;;5045948;28;20041;-71
2023/05/21 02:17:00;;;;;;;0.65;0.65;;;13.10;99.90;;;;;;5034572;28;20056;-71
2023/05/21 02:19:26;;;;;;;1.65;1.55;;;13.10;99.90;;;;;;5041443;28;20033;-70
2023/05/21 02:21:53;;;;;;;2.55;2.35;;;13.10;99.90;;;;;;5041294;28;20128;-71
2023/05/21 02:24:18;;;;;;;2.55;2.35;;;13.10;99.90;;;;;;5045160;28;20049;-71
2023/05/21 02:26:47;;;;;;;1.85;1.75;;;13.10;99.90;;;;;;5034759;28;20977;-71
2023/05/21 02:29:12;;;;;;;3.08;2.03;;;13.10;99.90;;;;;;5039939;28;20053;-70
2023/05/21 02:31:38;;;;;;;1.35;1.25;;;13.10;99.90;;;;;;5043233;28;20566;-71
2023/05/21 02:34:04;;;;;;;1.35;1.35;;;13.10;99.90;;;;;;5039801;28;20036;-71
2023/05/21 02:36:32;;;;;;;1.15;1.05;;;13.10;99.90;;;;;;5045368;28;20099;-71
2023/05/21 02:38:57;;;;;;;2.83;2.63;;;13.00;99.90;;;;;;5046353;28;20041;-70
2023/05/21 02:41:23;;;;;;;1.33;1.23;;;13.00;99.90;;;;;;5049290;28;20064;-70
2023/05/21 02:43:50;;;;;;;2.25;2.05;;;13.00;99.90;;;;;;5043686;28;20049;-70
2023/05/21 02:46:15;;;;;;;1.40;1.27;;;13.00;99.90;;;;;;5046484;28;20692;-71
2023/05/21 02:48:41;;;;;;;1.30;1.20;;;12.90;99.90;;;;;;5039683;28;20051;-70
2023/05/21 02:51:07;;;;;;;2.00;1.33;;;12.90;99.90;;;;;;5042051;28;20045;-70
2023/05/21 02:53:32;;;;;;;3.13;2.83;;;12.90;99.90;;;;;;5049643;28;20052;-71
2023/05/21 02:56:03;;;;;;;1.13;1.13;;;12.90;99.90;;;;;;5048716;28;20056;-70
2023/05/21 02:58:29;;;;;;;2.25;2.13;;;12.90;99.90;;;;;;5043589;28;20053;-70
2023/05/21 03:00:55;;;;;;;3.10;2.45;;;12.90;99.90;;;;;;5048035;28;20056;-71
2023/05/21 03:03:21;;;;;;;3.30;2.22;;;12.90;99.90;;;;;;5050423;28;20066;-71
2023/05/21 03:05:47;;;;;;;1.80;1.70;;;12.90;99.90;;;;;;5043185;28;20448;-70
2023/05/21 03:08:14;;;;;;;3.67;2.65;;;12.90;99.90;;;;;;5052386;28;20071;-70
2023/05/21 03:10:40;;;;;;;2.05;1.95;;;12.90;99.90;;;;;;5041593;28;20128;-71
2023/05/21 03:13:06;;;;;;;1.88;1.77;;;12.90;99.90;;;;;;5044768;28;20608;-71
2023/05/21 03:15:32;;;;;;;1.73;1.10;;;12.80;99.90;;;;;;5044591;28;20086;-71
2023/05/21 03:17:58;;;;;;;4.50;2.50;;;12.90;99.90;;;;;;5045310;28;20184;-70
2023/05/21 03:20:24;;;;;;;7.72;3.30;;;12.80;99.90;;;;;;5037489;28;20048;-70
2023/05/21 03:22:49;;;;;;;3.67;2.67;;;12.90;99.90;;;;;;5045328;28;20061;-70
2023/05/21 03:25:15;;;;;;;1.63;1.52;;;12.80;99.90;;;;;;5044603;28;20048;-70
2023/05/21 03:27:41;;;;;;;1.05;1.05;;;12.80;99.90;;;;;;5042688;28;20045;-71
2023/05/21 03:30:07;;;;;;;1.63;1.27;;;12.80;99.90;;;;;;5046274;28;20501;-71
2023/05/21 03:32:36;;;;;;;2.95;2.40;;;12.80;99.90;;;;;;5043153;28;20437;-71
2023/05/21 03:35:03;;;;;;;1.20;1.20;;;12.80;99.90;;;;;;5027753;28;20041;-71
2023/05/21 03:37:29;;;;;;;1.88;1.77;;;12.80;99.90;;;;;;5040854;28;20052;-70
2023/05/21 03:39:55;;;;;;;0.93;0.93;;;12.80;99.90;;;;;;5037273;28;20045;-71
2023/05/21 03:42:21;;;;;;;1.70;1.38;;;12.80;99.90;;;;;;5044259;28;20064;-71
2023/05/21 03:44:46;;;;;;;2.00;1.80;;;12.80;99.90;;;;;;5047582;28;20086;-70
2023/05/21 03:47:12;;;;;;;2.13;1.92;;;12.80;99.90;;;;;;5042506;28;20382;-70
2023/05/21 03:49:39;;;;;;;1.88;1.02;;;12.80;99.90;;;;;;5027056;28;20067;-70
2023/05/21 03:52:04;;;;;;;1.65;1.55;;;12.80;99.90;;;;;;5047492;28;20041;-71
2023/05/21 03:54:30;;;;;;;1.10;1.08;;;12.70;99.90;;;;;;5039153;28;20056;-70
2023/05/21 03:56:56;;;;;;;1.55;1.48;;;12.70;99.90;;;;;;5045880;28;20068;-70
2023/05/21 03:59:21;;;;;;;3.38;2.25;;;12.70;99.90;;;;;;5041001;28;20114;-70
2023/05/21 04:01:47;;;;;;;2.78;2.20;;;12.70;99.90;;;;;;5045043;28;20127;-70
2023/05/21 04:04:13;;;;;;;3.53;1.63;;;12.70;99.90;;;;;;5043927;28;20106;-70
2023/05/21 04:06:41;;;;;;;4.82;3.75;;;12.80;99.90;;;;;;5040922;28;20075;-71
2023/05/21 04:09:07;;;;;;;1.75;1.65;;;12.80;99.90;;;;;;5045225;28;20049;-71
2023/05/21 04:11:32;;;;;;;2.00;1.85;;;12.80;99.90;;;;;;5042529;28;20041;-71
2023/05/21 04:13:58;;;;;;;4.57;2.60;;;12.80;99.90;;;;;;5039484;28;20053;-71
2023/05/21 04:16:23;;;;;;;1.40;1.30;;;12.70;99.90;;;;;;5042437;28;20105;-70
2023/05/21 04:18:50;;;;;;;1.20;1.20;;;12.70;99.90;;;;;;5039192;28;20041;-70
2023/05/21 04:21:15;;;;;;;1.55;1.48;;;12.70;99.90;;;;;;5042270;28;20413;-70
2023/05/21 04:23:41;;;;;;;2.83;2.33;;;12.70;99.90;;;;;;5044438;28;20037;-71
2023/05/21 04:26:07;;;;;;;1.33;1.23;;;12.70;99.90;;;;;;5045454;28;20482;-70
2023/05/21 04:28:34;;;;;;;1.42;1.42;;;12.70;99.90;;;;;;5042013;28;20051;-70
2023/05/21 04:31:00;;;;;;;2.30;2.10;;;12.70;99.90;;;;;;5042332;28;20064;-70
2023/05/21 04:33:25;;;;;;;1.13;1.08;;;12.70;99.90;;;;;;5043465;28;20131;-70
2023/05/21 04:35:52;;;;;;;2.20;2.00;;;12.80;99.90;;;;;;5040240;28;20057;-71
2023/05/21 04:38:19;;;;;;;3.88;2.30;;;12.80;99.90;;;;;;5041951;28;20556;-71
2023/05/21 04:40:51;;;;;;;1.60;1.50;;;12.80;99.90;;;;;;5039562;28;20051;-71
2023/05/21 04:43:25;;;;;;;6.10;2.25;;;12.80;99.90;;;;;;5045589;28;20063;-71
2023/05/21 04:45:53;;;;;;;2.13;1.95;;;12.80;99.90;;;;;;5036267;28;20144;-71
2023/05/21 04:48:19;;;;;;;2.00;1.90;;;12.80;99.90;;;;;;5043063;28;20042;-71
2023/05/21 04:50:45;;;;;;;6.80;1.83;;;12.80;99.90;;;;;;5044369;28;20049;-71
2023/05/21 04:53:11;;;;;;;0.95;0.95;;;12.90;99.90;;;;;;5043862;28;20509;-71
2023/05/21 04:55:38;;;;;;;1.23;1.10;;;12.90;99.90;;;;;;5041767;28;20355;-71
2023/05/21 04:58:11;;;;;;;1.30;1.02;;;12.90;99.90;;;;;;5044077;28;20484;-71
2023/05/21 05:00:38;;;;;;;1.80;1.70;;;12.90;99.90;;;;;;5042089;28;20049;-71
2023/05/21 05:03:04;;;;;;;1.38;1.30;;;12.90;99.90;;;;;;5045974;28;20029;-70
2023/05/21 05:05:29;;;;;;;0.90;0.90;;;12.90;99.90;;;;;;5049286;28;20074;-70
2023/05/21 05:07:57;;;;;;;1.38;1.08;;;12.90;99.90;;;;;;5057546;28;20057;-70
2023/05/21 05:10:22;;;;;;;1.65;1.55;;;12.90;99.90;;;;;;5041243;28;20037;-71
2023/05/21 05:12:48;;;;;;;2.38;2.17;;;12.90;99.90;;;;;;5034118;28;20043;-71
2023/05/21 05:15:14;;;;;;;0.77;0.77;;;12.90;99.90;;;;;;5038038;28;20041;-71
2023/05/21 05:17:40;;;;;;;1.60;1.55;;;12.90;99.90;;;;;;5036257;28;20046;-71
2023/05/21 05:20:07;;;;;;;2.65;2.45;;;13.00;99.90;;;;;;5039615;28;20056;-71
2023/05/21 05:22:33;;;;;;;0.90;0.90;;;13.00;99.90;;;;;;5037815;28;20045;-71
2023/05/21 05:24:58;;;;;;;1.85;1.75;;;13.00;99.90;;;;;;5038817;28;20403;-71
2023/05/21 05:27:24;;;;;;;1.92;1.30;;;13.10;99.90;;;;;;5035253;28;20041;-71
2023/05/21 05:29:50;;;;;;;0.50;0.50;;;13.10;99.90;;;;;;5037910;28;20115;-71
2023/05/21 05:32:16;;;;;;;1.08;1.08;;;13.10;99.90;;;;;;5038280;28;20055;-71
2023/05/21 05:34:41;;;;;;;0.93;0.93;;;13.10;99.90;;;;;;5037169;28;20073;-71
2023/05/21 05:37:07;;;;;;;1.48;1.23;;;13.10;99.90;;;;;;5041345;28;20459;-71
2023/05/21 05:39:33;;;;;;;1.67;1.58;;;13.10;99.90;;;;;;5046016;28;20144;-71
2023/05/21 05:41:58;;;;;;;1.80;1.70;;;13.20;99.90;;;;;;5041004;28;20090;-71
2023/05/21 05:44:24;;;;;;;1.73;1.63;;;13.10;99.90;;;;;;5038932;28;20110;-71
2023/05/21 05:46:50;;;;;;;3.05;2.67;;;13.10;99.90;;;;;;5039937;28;20059;-71
2023/05/21 05:49:15;;;;;;;2.08;1.50;;;13.10;99.90;;;;;;5039523;28;20041;-71
2023/05/21 05:51:41;;;;;;;0.90;0.90;;;13.20;99.90;;;;;;5039308;28;20076;-71
2023/05/21 05:54:07;;;;;;;2.35;1.83;;;13.20;99.90;;;;;;5035487;28;20120;-71
2023/05/21 05:56:32;;;;;;;0.85;0.85;;;13.20;99.90;;;;;;5038742;28;20135;-71
2023/05/21 05:58:58;;;;;;;1.85;1.75;;;13.20;99.90;;;;;;5038963;28;20425;-71
2023/05/21 06:01:25;;;;;;;1.02;1.02;;;13.30;99.90;;;;;;5041953;28;20144;-71
2023/05/21 06:03:51;;;;;;;0.98;0.98;;;13.30;99.90;;;;;;5038534;28;20098;-71
2023/05/21 06:06:17;;;;;;;1.02;0.98;;;13.30;99.90;;;;;;5039283;28;20413;-71
2023/05/21 06:08:43;;;;;;;1.98;1.17;;;13.40;99.90;;;;;;5039537;28;20052;-71
2023/05/21 06:11:10;;;;;;;0.77;0.77;;;13.40;99.90;;;;;;5039490;28;20046;-71
2023/05/21 06:13:35;;;;;;;3.88;1.75;;;13.40;99.90;;;;;;5046786;28;20071;-71
2023/05/21 06:16:02;;;;;;;5.93;1.85;;;13.50;99.90;;;;;;5044697;28;20508;-71
2023/05/21 06:18:28;;;;;;;1.95;1.25;;;13.50;99.90;;;;;;5039565;28;20041;-71
2023/05/21 06:20:54;;;;;;;1.80;1.67;;;13.50;99.90;;;;;;5042751;28;20815;-72
2023/05/21 06:23:20;;;;;;;7.68;2.65;;;13.50;99.90;;;;;;5053527;28;20049;-72
2023/05/21 06:25:46;;;;;;;6.97;0.93;;;13.50;99.90;;;;;;5055785;28;20532;-71
2023/05/21 06:28:12;;;;;;;2.85;2.25;;;13.60;99.90;;;;;;5046963;28;20072;-71
2023/05/21 06:30:37;;;;;;;1.17;1.08;;;13.50;99.90;;;;;;5043675;28;20120;-71
2023/05/21 06:33:03;;;;;;;2.55;1.73;;;13.60;99.90;;;;;;5043608;28;20406;-71
2023/05/21 06:35:28;;;;;;;0.82;0.82;;;13.60;99.90;;;;;;5040613;28;20098;-71
2023/05/21 06:37:54;;;;;;;1.70;1.60;;;13.70;99.90;;;;;;5044024;28;20611;-71
2023/05/21 06:40:20;;;;;;;0.80;0.80;;;13.70;99.90;;;;;;5041679;28;20155;-71
2023/05/21 06:42:46;;;;;;;0.75;0.75;;;13.80;99.90;;;;;;5059309;28;20103;-71
2023/05/21 06:45:11;;;;;;;1.52;1.42;;;13.80;99.90;;;;;;5046807;28;20044;-71
2023/05/21 06:47:37;;;;;;;1.10;1.00;;;13.90;99.90;;;;;;5041391;28;20572;-71
2023/05/21 06:50:03;;;;;;;1.77;1.67;;;14.00;99.90;;;;;;5044760;28;20052;-71
2023/05/21 06:52:30;;;;;;;0.63;0.63;;;14.00;99.90;;;;;;5044979;28;20045;-71
2023/05/21 06:54:56;;;;;;;1.35;1.25;;;14.20;99.90;;;;;;5044557;28;20163;-71
2023/05/21 06:57:21;;;;;;;4.63;1.05;;;14.30;99.90;;;;;;5046454;28;20486;-71
2023/05/21 06:59:47;;;;;;;0.70;0.70;;;14.30;99.90;;;;;;5042435;28;20037;-71
2023/05/21 07:02:13;;;;;;;1.67;1.42;;;14.50;99.90;;;;;;5048059;28;20048;-71
2023/05/21 07:04:38;;;;;;;0.82;0.82;;;14.60;99.90;;;;;;5046783;28;20037;-71
2023/05/21 07:07:04;;;;;;;1.90;1.48;;;14.60;99.90;;;;;;5046714;28;20501;-72
2023/05/21 07:09:30;;;;;;;1.17;1.10;;;14.70;99.90;;;;;;5044773;28;20565;-71
2023/05/21 07:11:56;;;;;;;1.23;1.23;;;14.70;99.90;;;;;;5045748;28;20116;-71
2023/05/21 07:14:24;;;;;;;1.55;1.45;;;14.80;99.90;;;;;;5047040;28;20963;-71
2023/05/21 07:16:49;;;;;;;2.15;1.60;;;14.80;99.90;;;;;;5045299;28;20390;-71
2023/05/21 07:19:15;;;;;;;0.70;0.70;;;14.80;99.90;;;;;;5046237;28;20119;-71
2023/05/21 07:21:41;;;;;;;0.73;0.68;;;14.90;99.90;;;;;;5045932;28;20041;-71
2023/05/21 07:24:06;;;;;;;1.25;1.20;;;15.00;99.90;;;;;;5045984;28;20045;-71
2023/05/21 07:26:32;;;;;;;3.35;2.53;;;15.00;99.90;;;;;;5041125;28;20411;-71
2023/05/21 07:28:58;;;;;;;0.50;0.50;;;15.10;99.90;;;;;;5044352;28;20052;-72
2023/05/21 07:31:24;;;;;;;1.25;1.15;;;15.10;99.90;;;;;;5028658;28;20540;-72
2023/05/21 07:33:49;;;;;;;0.75;0.75;;;15.10;99.90;;;;;;5048356;28;20068;-72
2023/05/21 07:36:15;;;;;;;1.35;1.25;;;15.20;99.90;;;;;;5050407;28;20513;-71
2023/05/21 07:38:42;;;;;;;1.77;1.38;;;15.20;99.90;;;;;;5040502;28;20092;-71
2023/05/21 07:41:09;;;;;;;1.02;1.02;;;15.20;99.90;;;;;;5042560;28;20047;-71
2023/05/21 07:43:35;;;;;;;3.70;1.70;;;15.20;99.90;;;;;;5044510;28;20053;-72
2023/05/21 07:46:01;;;;;;;0.98;0.98;;;15.10;99.90;;;;;;5042990;28;20071;-71
2023/05/21 07:48:27;;;;;;;1.73;1.63;;;15.20;99.90;;;;;;5041673;28;20080;-71
2023/05/21 07:50:52;;;;;;;1.73;1.58;;;15.20;99.90;;;;;;5042084;28;20052;-71
2023/05/21 07:53:18;;;;;;;0.70;0.70;;;15.30;99.90;;;;;;5042511;28;20056;-71
2023/05/21 07:55:49;;;;;;;1.02;1.02;;;15.30;99.90;;;;;;5048913;28;20055;-71
2023/05/21 07:58:19;;;;;;;0.70;0.70;;;15.40;99.90;;;;;;5043809;28;20509;-71
2023/05/21 08:00:46;;;;;;;1.17;1.17;;;15.50;99.90;;;;;;5046030;28;20422;-71
2023/05/21 08:03:16;;;;;;;1.13;0.70;;;15.60;99.90;;;;;;5041986;28;20731;-71
2023/05/21 08:05:47;;;;;;;1.92;1.45;;;15.60;99.90;;;;;;5042444;28;20573;-71
2023/05/21 08:08:16;;;;;;;1.25;1.15;;;15.70;99.90;;;;;;5041243;28;20057;-71
2023/05/21 08:10:42;;;;;;;2.17;2.08;;;15.70;99.90;;;;;;5043312;28;20126;-71
2023/05/21 08:13:09;;;;;;;1.08;1.08;;;15.80;99.90;;;;;;5045228;28;20111;-71
2023/05/21 08:15:34;;;;;;;1.83;1.08;;;16.00;99.90;;;;;;5044594;28;20132;-71
2023/05/21 08:18:00;;;;;;;1.95;1.60;;;16.00;99.90;;;;;;5043676;28;20051;-72
2023/05/21 08:20:26;;;;;;;1.48;1.40;;;16.10;99.90;;;;;;5043557;28;20041;-71
2023/05/21 08:22:52;;;;;;;1.67;1.35;;;16.10;99.90;;;;;;5039656;28;20076;-71
2023/05/21 08:25:18;;;;;;;1.20;1.10;;;16.20;99.90;;;;;;5045268;28;20075;-71
2023/05/21 08:27:44;;;;;;;1.52;1.25;;;16.30;99.90;;;;;;5045575;28;20126;-71
2023/05/21 08:30:10;;;;;;;1.60;1.50;;;16.30;99.90;;;;;;5042952;28;20480;-71
2023/05/21 08:32:36;;;;;;;2.30;1.45;;;16.30;99.90;;;;;;5041693;28;20569;-71
2023/05/21 08:35:02;;;;;;;1.80;1.27;;;16.40;99.90;;;;;;5040611;28;20045;-71
2023/05/21 08:37:28;;;;;;;1.98;1.73;;;16.40;99.90;;;;;;5042300;28;20107;-72
2023/05/21 08:39:54;;;;;;;2.05;1.30;;;16.50;99.90;;;;;;5040731;28;20053;-72
2023/05/21 08:42:43;;;;;;;0.70;0.70;;;16.50;99.90;;;;;;5042017;28;20048;-71
2023/05/21 08:45:15;;;;;;;1.13;1.13;;;16.70;99.90;;;;;;5037060;28;20140;-71
2023/05/21 08:47:45;;;;;;;0.75;0.75;;;16.70;99.90;;;;;;5043245;28;20041;-71
2023/05/21 08:50:15;;;;;;;0.93;0.93;;;16.80;99.90;;;;;;5041136;28;20060;-71
2023/05/21 08:52:41;;;;;;;0.80;0.80;;;16.90;99.90;;;;;;5037208;28;20045;-72
2023/05/21 08:55:08;;;;;;;0.60;0.60;;;17.00;99.90;;;;;;5042949;28;20037;-72
2023/05/21 08:57:34;;;;;;;1.40;1.15;;;17.00;99.90;;;;;;5042384;28;20560;-72
2023/05/21 09:00:03;;;;;;;0.80;0.80;;;17.00;99.90;;;;;;5044130;28;20047;-72
2023/05/21 09:02:33;;;;;;;2.25;1.98;;;17.00;99.90;;;;;;5035911;28;20053;-72
2023/05/21 09:05:02;;;;;;;10.60;2.13;;;17.10;99.90;;;;;;5040129;28;20498;-72
2023/05/21 09:07:30;;;;;;;2.13;1.75;;;17.10;99.90;;;;;;5043459;28;20056;-72
2023/05/21 09:10:01;;;;;;;1.40;1.30;;;17.20;99.90;;;;;;5041170;28;20049;-72
2023/05/21 09:12:27;;;;;;;1.92;1.83;;;17.40;99.90;;;;;;5044249;28;20551;-71
2023/05/21 09:14:55;;;;;;;1.83;1.73;;;17.70;99.90;;;;;;5038769;28;20458;-71
2023/05/21 09:17:21;;;;;;;1.33;1.23;;;17.90;99.90;;;;;;5043346;28;20048;-72
2023/05/21 09:20:16;;;;;;;2.60;1.73;;;18.00;99.90;;;;;;5042351;28;20107;-71
2023/05/21 09:22:45;;;;;;;1.33;1.27;;;18.00;99.90;;;;;;5037338;28;20048;-72
2023/05/21 09:25:16;;;;;;;1.20;1.10;;;18.00;99.90;;;;;;5037434;28;20068;-71
2023/05/21 09:27:43;;;;;;;2.70;2.50;;;18.20;99.90;;;;;;5040051;28;20079;-73
2023/05/21 09:30:14;;;;;;;1.27;1.20;;;18.30;99.90;;;;;;5041010;28;20041;-72
2023/05/21 09:32:40;;;;;;;3.38;2.40;;;18.50;99.90;;;;;;5040569;28;20052;-71
2023/05/21 09:35:10;;;;;;;2.08;1.92;;;18.50;99.90;;;;;;5039770;28;20120;-72
2023/05/21 09:37:37;;;;;;;2.35;1.70;;;18.40;99.90;;;;;;5040860;28;20079;-72
2023/05/21 09:40:14;;;;;;;2.67;2.45;;;18.30;99.90;;;;;;5043984;28;20040;-72
2023/05/21 09:42:41;;;;;;;1.17;1.15;;;18.30;99.90;;;;;;5037612;28;20044;-72
2023/05/21 09:45:11;;;;;;;1.00;1.00;;;18.40;99.90;;;;;;5042400;28;20050;-72
2023/05/21 09:47:42;;;;;;;0.85;0.85;;;18.40;99.90;;;;;;5039356;28;20124;-73
2023/05/21 09:50:27;;;;;;;0.60;0.60;;;18.40;99.90;;;;;;5062597;28;20048;-72
2023/05/21 09:52:54;;;;;;;2.75;1.92;;;18.50;99.90;;;;;;5039480;28;20060;-73
2023/05/21 09:55:24;;;;;;;1.15;1.10;;;18.50;99.90;;;;;;5049840;28;20056;-73
2023/05/21 09:57:51;;;;;;;1.73;1.35;;;18.60;99.90;;;;;;5045781;28;20056;-73
2023/05/21 10:00:20;;;;;;;2.47;2.28;;;18.40;99.90;;;;;;5052945;28;20391;-72
2023/05/21 10:02:47;;;;;;;2.25;2.05;;;18.30;99.90;;;;;;5050955;28;20041;-72
2023/05/21 10:05:14;;;;;;;1.88;1.10;;;18.30;99.90;;;;;;5048280;28;20686;-72
2023/05/21 10:07:52;;;;;;;7.07;2.85;;;18.30;99.90;;;;;;5057177;28;20089;-72
2023/05/21 10:10:19;;;;;;;3.97;2.45;;;18.30;99.90;;;;;;5050853;28;20083;-72
2023/05/21 10:12:47;;;;;;;2.58;2.38;;;18.40;99.90;;;;;;5060190;28;20128;-72
2023/05/21 10:15:16;;;;;;;2.47;2.38;;;18.30;99.90;;;;;;5056372;28;20932;-73
2023/05/21 10:17:45;;;;;;;2.17;1.98;;;18.30;99.90;;;;;;5057257;28;20044;-72
2023/05/21 10:20:11;;;;;;;2.67;2.20;;;18.20;99.90;;;;;;5058052;28;20049;-72
2023/05/21 10:22:38;;;;;;;5.93;3.85;;;18.20;99.90;;;;;;5052104;28;20572;-72
2023/05/21 10:25:06;;;;;;;5.63;4.65;;;18.20;99.90;;;;;;5054860;28;20063;-72
2023/05/21 10:27:33;;;;;;;3.20;3.00;;;18.20;99.90;;;;;;5049245;28;20037;-72
2023/05/21 10:29:59;;;;;;;2.23;1.53;;;18.20;99.90;;;;;;5054366;28;20048;-72
2023/05/21 10:32:30;;;;;;;3.22;2.20;;;18.30;99.90;;;;;;5056492;28;20044;-72
2023/05/21 10:34:57;;;;;;;2.22;1.98;;;18.40;99.90;;;;;;5049871;28;20055;-72
2023/05/21 10:37:27;;;;;;;2.67;2.35;;;18.60;99.90;;;;;;5046831;28;20049;-72
2023/05/21 10:39:56;;;;;;;1.73;1.55;;;18.70;99.90;;;;;;5043307;28;20047;-72
2023/05/21 10:42:30;;;;;;;3.25;2.97;;;18.80;99.90;;;;;;5046499;28;20052;-72
2023/05/21 10:45:22;;;;;;;1.60;1.50;;;18.80;99.90;;;;;;5047390;28;20045;-72
2023/05/21 10:48:10;;;;;;;3.22;2.25;;;18.90;99.90;;;;;;5046015;28;20102;-72
2023/05/21 10:50:55;;;;;;;3.83;2.70;;;18.90;99.90;;;;;;5046621;28;20049;-72
2023/05/21 10:53:23;;;;;;;1.58;1.58;;;19.10;99.90;;;;;;5045382;28;20493;-72
2023/05/21 10:56:13;;;;;;;3.47;1.90;;;19.40;99.90;;;;;;5045311;28;20053;-72
2023/05/21 10:59:03;;;;;;;2.08;1.98;;;19.60;99.90;;;;;;5047897;28;20045;-72
2023/05/21 11:01:32;;;;;;;1.85;1.65;;;19.80;99.90;;;;;;5045735;28;20033;-72
2023/05/21 11:03:58;;;;;;;2.67;2.47;;;20.10;99.90;;;;;;5043978;28;20049;-72
2023/05/21 11:06:25;;;;;;;2.60;1.55;;;20.40;99.90;;;;;;5044412;28;20393;-72
2023/05/21 11:08:54;;;;;;;2.78;2.58;;;20.50;99.90;;;;;;5043741;28;20089;-72
2023/05/21 11:11:42;;;;;;;3.50;2.95;;;20.60;99.90;;;;;;5043315;28;20067;-72
2023/05/21 11:14:31;;;;;;;3.53;3.13;;;20.60;99.90;;;;;;5044367;28;20510;-72
2023/05/21 11:17:01;;;;;;;2.72;2.53;;;20.60;99.90;;;;;;5044420;28;20053;-72
2023/05/21 11:19:46;;;;;;;3.95;3.67;;;20.60;99.90;;;;;;5043521;28;20072;-71
2023/05/21 11:22:25;;;;;;;5.43;4.90;;;20.60;99.90;;;;;;5048662;28;20547;-71
2023/05/21 11:24:52;;;;;;;4.07;3.10;;;20.60;99.90;;;;;;5044300;28;20036;-71
2023/05/21 11:27:32;;;;;;;3.47;3.28;;;20.70;99.90;;;;;;5046527;28;20127;-72
2023/05/21 11:29:58;;;;;;;3.65;3.45;;;20.80;99.90;;;;;;5044209;28;20140;-72
2023/05/21 11:32:24;;;;;;;3.72;3.38;;;20.90;99.90;;;;;;5044493;28;20048;-71
2023/05/21 11:34:50;;;;;;;3.63;3.40;;;20.90;99.90;;;;;;5044869;28;20059;-72
2023/05/21 11:37:16;;;;;;;5.63;3.65;;;20.90;99.90;;;;;;5048883;28;20044;-72
2023/05/21 11:39:43;;;;;;;4.82;3.88;;;21.00;99.90;;;;;;5046994;28;20049;-72
2023/05/21 11:42:08;;;;;;;7.38;5.88;;;21.00;99.90;;;;;;5047807;28;20056;-72
2023/05/21 11:44:44;;;;;;;5.20;4.82;;;21.20;99.90;;;;;;5050364;28;20037;-72
2023/05/21 11:47:11;;;;;;;5.82;4.47;;;21.30;99.90;;;;;;5046300;28;20045;-72
2023/05/21 11:49:38;;;;;;;7.38;4.68;;;21.20;99.90;;;;;;5042590;28;20045;-72
2023/05/21 11:52:08;;;;;;;5.30;4.80;;;21.20;99.90;;;;;;5048881;28;20794;-72
2023/05/21 11:54:56;;;;;;;5.00;3.42;;;21.20;99.90;;;;;;5042101;28;20379;-72
2023/05/21 11:57:25;;;;;;;3.80;3.08;;;21.50;99.90;;;;;;5045467;28;20053;-72
2023/05/21 11:59:57;;;;;;;3.60;3.28;;;21.60;99.90;;;;;;5046671;28;20090;-73
2023/05/21 12:02:27;;;;;;;6.95;5.53;;;21.70;99.90;;;;;;5058898;28;20123;-73
2023/05/21 12:04:53;;;;;;;3.15;2.95;;;21.60;99.90;;;;;;5052357;28;20457;-73
2023/05/21 12:07:19;;;;;;;3.42;3.13;;;21.60;99.90;;;;;;5056921;28;20045;-73
2023/05/21 12:09:50;;;;;;;4.32;3.38;;;21.60;99.90;;;;;;5043788;28;20089;-73
2023/05/21 12:12:18;;;;;;;3.30;3.00;;;21.70;99.90;;;;;;5049937;28;20041;-75
2023/05/21 12:14:46;;;;;;;4.75;4.22;;;21.80;99.90;;;;;;5050458;28;20051;-73
2023/05/21 12:17:15;;;;;;;12.27;4.25;;;21.80;99.90;;;;;;5047911;28;20053;-73
2023/05/21 12:19:41;;;;;;;2.58;2.38;;;21.80;99.90;;;;;;5048069;28;20045;-73
2023/05/21 12:22:07;;;;;;;3.45;3.15;;;21.90;99.90;;;;;;5048497;28;20041;-73
2023/05/21 12:24:34;;;;;;;3.05;2.85;;;21.70;99.90;;;;;;5059941;28;20037;-73
2023/05/21 12:27:02;;;;;;;3.53;3.30;;;21.90;99.90;;;;;;5046445;28;20054;-74
2023/05/21 12:29:32;;;;;;;3.78;3.13;;;22.00;99.50;;;;;;5042751;28;22444;-72
2023/05/21 12:32:02;;;;;;;2.97;2.17;;;21.90;99.90;;;;;;5045833;28;20041;-70
2023/05/21 12:34:48;;;;;;;6.50;4.47;;;22.10;99.80;;;;;;5047263;28;20731;-68
2023/05/21 12:37:20;;;;;;;6.00;3.22;;;21.90;99.90;;;;;;5045373;28;20433;-69
2023/05/21 12:39:52;;;;;;;6.25;3.78;;;21.90;99.90;;;;;;5054260;28;20064;-69
2023/05/21 12:42:33;;;;;;;4.07;3.67;;;21.90;99.90;;;;;;5050322;28;20048;-69
2023/05/21 12:44:59;;;;;;;1.13;1.05;;;22.00;99.90;;;;;;5050700;28;20957;-69
2023/05/21 12:47:26;;;;;;;2.53;2.25;;;22.10;99.70;;;;;;5053615;28;20045;-68
2023/05/21 12:50:00;;;;;;;2.83;2.63;;;22.10;99.90;;;;;;5053726;28;20056;-69
2023/05/21 12:52:26;;;;;;;2.83;2.65;;;22.00;99.70;;;;;;5043686;28;20148;-69